createdAt,value
2022-10-19T00:00:29.447Z,13.25
2022-10-19T00:01:36.618Z,13.22
2022-10-19T00:02:38.598Z,13.26
2022-10-19T00:03:43.322Z,13.26
2022-10-19T00:04:45.087Z,13.24
2022-10-19T00:05:49.472Z,13.23
2022-10-19T00:06:51.221Z,13.17
2022-10-19T00:07:55.758Z,13.08
2022-10-19T00:08:58.422Z,13.01
2022-10-19T00:10:02.799Z,12.96
2022-10-19T00:11:04.550Z,12.87
2022-10-19T00:12:08.910Z,12.80
2022-10-19T00:13:10.771Z,12.74
2022-10-19T00:14:16.820Z,12.66
2022-10-19T00:15:18.548Z,12.60
2022-10-19T00:16:23.192Z,12.54
2022-10-19T00:17:24.947Z,12.46
2022-10-19T00:18:29.334Z,12.39
2022-10-19T00:19:34.079Z,12.36
2022-10-19T00:20:36.335Z,12.33
2022-10-19T00:21:40.937Z,12.28
2022-10-19T00:22:42.761Z,12.26
2022-10-19T00:23:47.151Z,12.18
2022-10-19T00:24:48.906Z,12.15
2022-10-19T00:25:59.778Z,12.10
2022-10-19T00:27:01.651Z,12.05
2022-10-19T00:28:06.057Z,12.00
2022-10-19T00:29:07.923Z,11.95
2022-10-19T00:30:12.360Z,11.93
2022-10-19T00:31:15.877Z,11.87
2022-10-19T00:32:20.513Z,11.84
2022-10-19T00:33:22.924Z,11.80
2022-10-19T00:34:27.258Z,11.75
2022-10-19T00:35:29.022Z,11.74
2022-10-19T00:36:35.282Z,11.68
2022-10-19T00:37:37.042Z,11.71
2022-10-19T00:38:41.957Z,11.64
2022-10-19T00:39:43.881Z,11.56
2022-10-19T00:40:48.309Z,11.55
2022-10-19T00:41:52.632Z,11.50
2022-10-19T00:42:55.365Z,11.55
2022-10-19T00:43:59.771Z,11.53
2022-10-19T00:45:03.158Z,11.43
2022-10-19T00:46:08.218Z,11.41
2022-10-19T00:47:10.083Z,11.37
2022-10-19T00:48:15.510Z,11.33
2022-10-19T00:49:20.958Z,11.33
2022-10-19T00:50:26.640Z,11.31
2022-10-19T00:51:28.563Z,11.29
2022-10-19T00:52:33.333Z,11.27
2022-10-19T00:53:35.356Z,11.29
2022-10-19T00:54:40.881Z,11.26
2022-10-19T00:55:42.665Z,11.28
2022-10-19T00:56:47.447Z,11.28
2022-10-19T00:59:16.779Z,11.34
2022-10-19T01:00:18.597Z,11.32
2022-10-19T01:01:23.365Z,11.38
2022-10-19T01:02:25.215Z,11.41
2022-10-19T01:03:29.550Z,11.42
2022-10-19T01:04:31.431Z,11.45
2022-10-19T01:05:36.189Z,11.48
2022-10-19T01:06:38.005Z,11.51
2022-10-19T01:07:42.379Z,11.53
2022-10-19T01:08:44.197Z,11.54
2022-10-19T01:09:48.757Z,11.54
2022-10-19T01:11:02.858Z,11.56
2022-10-19T01:12:26.195Z,11.57
2022-10-19T01:13:37.110Z,11.61
2022-10-19T01:14:38.797Z,11.61
2022-10-19T01:15:49.830Z,11.61
2022-10-19T01:17:00.258Z,11.59
2022-10-19T01:18:09.938Z,11.57
2022-10-19T01:19:17.346Z,11.63
2022-10-19T01:20:40.547Z,11.64
2022-10-19T01:21:46.703Z,11.62
2022-10-19T01:22:55.470Z,11.64
2022-10-19T01:24:18.508Z,11.65
2022-10-19T01:25:24.946Z,11.70
2022-10-19T01:26:38.301Z,11.73
2022-10-19T01:27:44.705Z,11.74
2022-10-19T01:28:54.342Z,11.77
2022-10-19T01:29:58.791Z,11.78
2022-10-19T01:31:03.120Z,11.77
2022-10-19T01:32:04.811Z,11.78
2022-10-19T01:33:16.255Z,11.79
2022-10-19T01:34:33.056Z,11.83
2022-10-19T01:35:54.373Z,11.82
2022-10-19T01:36:56.099Z,11.80
2022-10-19T01:38:22.469Z,11.77
2022-10-19T01:39:24.220Z,11.78
2022-10-19T01:40:43.530Z,11.76
2022-10-19T01:41:53.376Z,11.73
2022-10-19T01:43:01.181Z,11.70
2022-10-19T01:44:12.487Z,11.67
2022-10-19T01:45:15.711Z,11.69
2022-10-19T01:46:24.866Z,11.70
2022-10-19T01:47:27.199Z,11.71
2022-10-19T01:48:32.094Z,11.71
2022-10-19T01:49:36.975Z,11.71
2022-10-19T01:50:43.516Z,11.68
2022-10-19T01:51:49.093Z,11.71
2022-10-19T01:52:51.196Z,11.70
2022-10-19T01:53:56.317Z,11.73
2022-10-19T01:54:59.858Z,11.75
2022-10-19T01:56:04.191Z,11.75
2022-10-19T01:57:06.563Z,11.76
2022-10-19T01:58:11.454Z,11.75
2022-10-19T01:59:13.218Z,11.75
2022-10-19T02:00:17.789Z,11.73
2022-10-19T02:01:19.949Z,11.74
2022-10-19T02:02:27.074Z,11.70
2022-10-19T02:03:28.830Z,11.71
2022-10-19T02:04:33.182Z,11.69
2022-10-19T02:05:34.942Z,11.68
2022-10-19T02:06:39.269Z,11.64
2022-10-19T02:07:41.595Z,11.58
2022-10-19T02:08:50.267Z,11.56
2022-10-19T02:09:52.055Z,11.58
2022-10-19T02:10:56.381Z,11.63
2022-10-19T02:11:59.856Z,11.62
2022-10-19T02:13:04.209Z,11.66
2022-10-19T02:14:07.195Z,11.64
2022-10-19T02:15:15.447Z,11.63
2022-10-19T02:16:22.274Z,11.63
2022-10-19T02:17:30.497Z,11.61
2022-10-19T02:18:36.235Z,11.59
2022-10-19T02:19:40.558Z,11.59
2022-10-19T02:20:42.394Z,11.61
2022-10-19T02:21:46.766Z,11.61
2022-10-19T02:22:48.529Z,11.62
2022-10-19T02:23:54.241Z,11.59
2022-10-19T02:24:56.312Z,11.62
2022-10-19T02:26:00.661Z,11.63
2022-10-19T02:27:04.952Z,11.65
2022-10-19T02:28:09.507Z,11.62
2022-10-19T02:29:11.260Z,11.63
2022-10-19T02:30:16.260Z,11.66
2022-10-19T02:31:18.116Z,11.67
2022-10-19T02:32:22.480Z,11.67
2022-10-19T02:33:24.255Z,11.65
2022-10-19T02:34:28.695Z,11.64
2022-10-19T02:35:30.483Z,11.62
2022-10-19T02:36:34.887Z,11.58
2022-10-19T02:38:40.943Z,11.54
2022-10-19T02:39:43.313Z,11.57
2022-10-19T02:40:48.469Z,11.56
2022-10-19T02:41:52.379Z,11.51
2022-10-19T02:43:01.500Z,11.49
2022-10-19T02:44:08.281Z,11.46
2022-10-19T02:45:21.467Z,11.42
2022-10-19T02:46:23.179Z,11.37
2022-10-19T02:47:38.647Z,11.33
2022-10-19T02:48:40.383Z,11.27
2022-10-19T02:49:44.766Z,11.24
2022-10-19T02:50:47.851Z,11.21
2022-10-19T02:52:06.089Z,11.19
2022-10-19T02:53:07.822Z,11.15
2022-10-19T02:54:12.205Z,11.10
2022-10-19T02:55:13.994Z,11.05
2022-10-19T02:56:18.330Z,11.03
2022-10-19T02:57:23.589Z,11.02
2022-10-19T02:58:27.925Z,10.97
2022-10-19T02:59:30.193Z,10.94
2022-10-19T03:00:34.695Z,10.96
2022-10-19T03:01:36.490Z,10.97
2022-10-19T03:02:40.838Z,10.94
2022-10-19T03:03:42.594Z,10.88
2022-10-19T03:05:49.763Z,10.88
2022-10-19T03:06:54.086Z,10.87
2022-10-19T03:07:55.826Z,10.86
2022-10-19T03:09:00.259Z,10.85
2022-10-19T03:10:02.024Z,10.82
2022-10-19T03:11:06.433Z,10.82
2022-10-19T03:12:08.289Z,10.81
2022-10-19T03:13:12.651Z,10.82
2022-10-19T03:14:14.463Z,10.82
2022-10-19T03:15:19.363Z,10.81
2022-10-19T03:16:21.110Z,10.83
2022-10-19T03:17:25.439Z,10.80
2022-10-19T03:18:27.195Z,10.79
2022-10-19T03:19:31.692Z,10.79
2022-10-19T03:20:33.524Z,10.79
2022-10-19T03:21:37.942Z,10.80
2022-10-19T03:22:39.805Z,10.78
2022-10-19T03:23:44.424Z,10.79
2022-10-19T03:24:46.208Z,10.81
2022-10-19T03:25:50.672Z,10.81
2022-10-19T03:26:52.547Z,10.79
2022-10-19T03:27:56.890Z,10.82
2022-10-19T03:28:58.686Z,10.86
2022-10-19T03:30:03.062Z,10.85
2022-10-19T03:31:04.864Z,10.83
2022-10-19T03:32:09.290Z,10.86
2022-10-19T03:33:11.020Z,10.84
2022-10-19T03:34:15.359Z,10.88
2022-10-19T03:35:17.252Z,10.92
2022-10-19T03:36:28.655Z,10.93
2022-10-19T03:37:30.397Z,10.97
2022-10-19T03:38:34.723Z,11.01
2022-10-19T03:39:36.472Z,10.99
2022-10-19T03:40:40.814Z,11.02
2022-10-19T03:41:42.859Z,11.04
2022-10-19T03:42:47.184Z,11.04
2022-10-19T03:43:49.029Z,11.10
2022-10-19T03:44:54.019Z,11.09
2022-10-19T03:45:56.027Z,11.10
2022-10-19T03:47:00.376Z,11.12
2022-10-19T03:48:02.110Z,11.08
2022-10-19T03:49:07.018Z,11.15
2022-10-19T03:50:11.344Z,11.15
2022-10-19T03:51:17.283Z,11.17
2022-10-19T03:52:19.129Z,11.18
2022-10-19T03:53:23.538Z,11.17
2022-10-19T03:54:27.412Z,11.23
2022-10-19T03:55:32.880Z,11.25
2022-10-19T03:56:35.297Z,11.23
2022-10-19T03:57:40.047Z,11.26
2022-10-19T03:58:42.150Z,11.28
2022-10-19T03:59:46.560Z,11.23
2022-10-19T04:00:48.369Z,11.26
2022-10-19T04:01:52.702Z,11.28
2022-10-19T04:02:54.443Z,11.29
2022-10-19T04:03:59.861Z,11.31
2022-10-19T04:05:04.210Z,11.31
2022-10-19T04:06:06.813Z,11.32
2022-10-19T04:07:11.160Z,11.32
2022-10-19T04:08:12.947Z,11.33
2022-10-19T04:09:19.702Z,11.34
2022-10-19T04:10:21.496Z,11.32
2022-10-19T04:11:27.102Z,11.34
2022-10-19T04:12:28.934Z,11.33
2022-10-19T04:13:33.741Z,11.36
2022-10-19T04:14:52.639Z,11.33
2022-10-19T04:15:59.879Z,11.38
2022-10-19T04:17:02.096Z,11.36
2022-10-19T04:18:06.499Z,11.41
2022-10-19T04:19:08.671Z,11.39
2022-10-19T04:20:13.185Z,11.40
2022-10-19T04:23:32.043Z,11.36
2022-10-19T04:24:33.853Z,11.34
2022-10-19T04:25:38.236Z,11.36
2022-10-19T04:26:41.667Z,11.37
2022-10-19T04:27:46.038Z,11.36
2022-10-19T04:28:48.013Z,11.40
2022-10-19T04:29:52.525Z,11.42
2022-10-19T04:30:54.297Z,11.39
2022-10-19T04:31:58.636Z,11.39
2022-10-19T04:33:00.378Z,11.45
2022-10-19T04:34:04.716Z,11.42
2022-10-19T04:35:06.974Z,11.37
2022-10-19T04:36:12.202Z,11.33
2022-10-19T04:37:13.983Z,11.37
2022-10-19T04:38:18.310Z,11.37
2022-10-19T04:39:20.107Z,11.40
2022-10-19T04:40:24.466Z,11.38
2022-10-19T04:41:26.225Z,11.37
2022-10-19T04:42:30.646Z,11.40
2022-10-19T04:43:32.441Z,11.38
2022-10-19T04:44:36.814Z,11.37
2022-10-19T04:45:38.622Z,11.35
2022-10-19T04:46:43.044Z,11.31
2022-10-19T04:47:44.790Z,11.35
2022-10-19T04:48:49.666Z,11.35
2022-10-19T04:49:51.421Z,11.38
2022-10-19T04:50:57.262Z,11.39
2022-10-19T04:52:01.675Z,11.35
2022-10-19T04:53:03.599Z,11.33
2022-10-19T04:54:07.936Z,11.26
2022-10-19T04:55:09.752Z,11.29
2022-10-19T04:56:15.362Z,11.23
2022-10-19T04:57:17.144Z,11.29
2022-10-19T04:58:21.637Z,11.30
2022-10-19T04:59:23.435Z,11.32
2022-10-19T05:00:27.753Z,11.32
2022-10-19T05:01:30.103Z,11.27
2022-10-19T05:02:34.501Z,11.30
2022-10-19T05:03:36.259Z,11.35
2022-10-19T05:04:43.079Z,11.32
2022-10-19T05:05:47.366Z,11.33
2022-10-19T05:06:51.687Z,11.32
2022-10-19T05:07:53.548Z,11.29
2022-10-19T05:08:58.912Z,11.26
2022-10-19T05:10:00.682Z,11.26
2022-10-19T05:11:05.622Z,11.32
2022-10-19T05:12:10.023Z,11.30
2022-10-19T05:13:11.806Z,11.32
2022-10-19T05:14:16.176Z,11.29
2022-10-19T05:15:18.139Z,11.28
2022-10-19T05:16:23.658Z,11.30
2022-10-19T05:17:25.407Z,11.22
2022-10-19T05:18:29.974Z,11.23
2022-10-19T05:19:31.752Z,11.18
2022-10-19T05:20:36.081Z,11.16
2022-10-19T05:21:40.486Z,11.15
2022-10-19T05:22:42.299Z,11.12
2022-10-19T05:23:46.777Z,11.09
2022-10-19T05:24:48.526Z,11.09
2022-10-19T05:25:52.955Z,11.08
2022-10-19T05:26:57.332Z,11.02
2022-10-19T05:27:59.071Z,11.04
2022-10-19T05:29:04.806Z,11.08
2022-10-19T05:30:08.414Z,11.06
2022-10-19T05:31:13.694Z,11.06
2022-10-19T05:32:15.471Z,11.07
2022-10-19T05:33:19.962Z,11.06
2022-10-19T05:34:24.371Z,11.11
2022-10-19T05:35:26.791Z,11.13
2022-10-19T05:36:34.621Z,11.19
2022-10-19T05:37:36.943Z,11.19
2022-10-19T05:38:41.709Z,11.22
2022-10-19T05:39:46.308Z,11.22
2022-10-19T05:40:53.614Z,11.27
2022-10-19T05:41:58.207Z,11.32
2022-10-19T05:42:59.999Z,11.36
2022-10-19T05:44:05.149Z,11.36
2022-10-19T05:45:07.387Z,11.34
2022-10-19T05:46:12.821Z,11.40
2022-10-19T05:47:14.667Z,11.46
2022-10-19T05:48:19.086Z,11.47
2022-10-19T05:49:24.224Z,11.42
2022-10-19T05:50:31.105Z,11.50
2022-10-19T05:51:35.643Z,11.52
2022-10-19T05:52:37.460Z,11.42
2022-10-19T05:53:42.479Z,11.54
2022-10-19T05:54:44.514Z,11.51
2022-10-19T05:55:48.888Z,11.56
2022-10-19T05:56:53.267Z,11.62
2022-10-19T05:57:55.027Z,11.70
2022-10-19T05:59:00.896Z,11.69
2022-10-19T06:00:03.999Z,11.72
2022-10-19T06:01:18.944Z,11.73
2022-10-19T06:02:20.810Z,11.73
2022-10-19T06:03:25.168Z,11.71
2022-10-19T06:04:29.585Z,11.73
2022-10-19T06:05:31.402Z,11.78
2022-10-19T06:06:35.978Z,11.76
2022-10-19T06:07:37.766Z,11.84
2022-10-19T06:08:42.242Z,11.80
2022-10-19T06:09:45.811Z,11.82
2022-10-19T06:10:50.314Z,11.79
2022-10-19T06:11:54.705Z,11.77
2022-10-19T06:12:56.423Z,11.75
2022-10-19T06:14:02.531Z,11.70
2022-10-19T06:15:04.447Z,11.63
2022-10-19T06:16:09.411Z,11.60
2022-10-19T06:17:11.303Z,11.69
2022-10-19T06:18:15.830Z,11.69
2022-10-19T06:19:20.211Z,11.76
2022-10-19T06:20:21.984Z,11.66
2022-10-19T06:21:27.557Z,11.70
2022-10-19T06:22:29.853Z,11.63
2022-10-19T06:23:35.024Z,11.72
2022-10-19T06:24:39.402Z,11.78
2022-10-19T06:25:41.349Z,11.79
2022-10-19T06:26:45.691Z,11.81
2022-10-19T06:27:47.660Z,11.85
2022-10-19T06:28:52.318Z,11.90
2022-10-19T06:29:54.159Z,11.92
2022-10-19T06:31:00.077Z,12.02
2022-10-19T06:32:04.449Z,12.01
2022-10-19T06:33:06.441Z,12.02
2022-10-19T06:34:10.897Z,11.88
2022-10-19T06:35:12.674Z,11.86
2022-10-19T06:36:21.448Z,12.01
2022-10-19T06:37:23.287Z,12.04
2022-10-19T06:38:27.613Z,12.06
2022-10-19T06:39:29.403Z,12.06
2022-10-19T06:40:33.817Z,12.01
2022-10-19T06:41:35.687Z,12.16
2022-10-19T06:42:55.586Z,12.09
2022-10-19T06:43:57.388Z,12.11
2022-10-19T06:45:01.807Z,12.12
2022-10-19T06:46:04.321Z,12.10
2022-10-19T06:47:08.630Z,12.08
2022-10-19T06:48:13.006Z,12.03
2022-10-19T06:49:17.586Z,12.07
2022-10-19T06:50:20.495Z,12.07
2022-10-19T06:51:25.502Z,11.99
2022-10-19T06:52:27.337Z,11.85
2022-10-19T06:53:34.434Z,11.79
2022-10-19T06:54:38.833Z,11.84
2022-10-19T06:55:40.647Z,11.83
2022-10-19T06:56:45.066Z,11.83
2022-10-19T06:57:46.827Z,11.93
2022-10-19T06:58:51.153Z,11.95
2022-10-19T06:59:53.784Z,11.90
2022-10-19T07:00:59.277Z,11.86
2022-10-19T07:02:03.653Z,11.89
2022-10-19T07:03:05.455Z,11.99
2022-10-19T07:04:09.782Z,12.12
2022-10-19T07:05:11.539Z,12.13
2022-10-19T07:06:15.936Z,12.13
2022-10-19T07:07:18.212Z,12.20
2022-10-19T07:08:22.743Z,12.20
2022-10-19T07:09:27.086Z,12.12
2022-10-19T07:10:29.699Z,12.12
2022-10-19T07:11:34.118Z,12.12
2022-10-19T07:12:35.853Z,12.13
2022-10-19T07:13:40.238Z,12.17
2022-10-19T07:14:41.982Z,12.14
2022-10-19T07:15:47.105Z,12.17
2022-10-19T07:16:52.505Z,12.17
2022-10-19T07:17:54.293Z,12.14
2022-10-19T07:18:59.090Z,11.99
2022-10-19T07:20:00.839Z,11.97
2022-10-19T07:21:05.953Z,12.02
2022-10-19T07:22:07.796Z,11.87
2022-10-19T07:23:12.159Z,11.97
2022-10-19T07:24:16.515Z,12.08
2022-10-19T07:25:18.318Z,12.04
2022-10-19T07:26:27.948Z,12.06
2022-10-19T07:27:31.874Z,12.15
2022-10-19T07:28:39.690Z,12.19
2022-10-19T07:29:41.547Z,12.20
2022-10-19T07:30:45.885Z,12.22
2022-10-19T07:31:47.644Z,12.16
2022-10-19T07:32:52.093Z,12.11
2022-10-19T07:33:59.881Z,12.07
2022-10-19T07:35:04.235Z,12.08
2022-10-19T07:36:08.400Z,12.13
2022-10-19T07:37:12.790Z,12.13
2022-10-19T07:38:14.607Z,12.19
2022-10-19T07:39:19.714Z,12.35
2022-10-19T07:40:21.536Z,12.37
2022-10-19T07:41:26.553Z,12.44
2022-10-19T07:42:30.498Z,12.54
2022-10-19T07:43:34.955Z,12.55
2022-10-19T07:44:36.843Z,12.50
2022-10-19T07:45:41.178Z,12.63
2022-10-19T07:46:45.562Z,12.68
2022-10-19T07:47:47.316Z,12.83
2022-10-19T07:48:51.759Z,12.80
2022-10-19T07:49:53.524Z,12.93
2022-10-19T07:50:57.869Z,13.23
2022-10-19T07:52:02.326Z,13.52
2022-10-19T07:53:05.368Z,13.72
2022-10-19T07:54:09.733Z,13.89
2022-10-19T07:55:11.527Z,14.05
2022-10-19T07:56:20.650Z,14.27
2022-10-19T07:57:25.113Z,14.21
2022-10-19T07:58:26.924Z,14.10
2022-10-19T07:59:31.386Z,14.03
2022-10-19T08:00:36.016Z,13.83
2022-10-19T08:01:44.828Z,13.60
2022-10-19T08:02:57.770Z,13.49
2022-10-19T08:04:55.477Z,13.52
2022-10-19T08:05:35.973Z,13.38
2022-10-19T08:06:40.353Z,13.16
2022-10-19T08:07:46.624Z,13.09
2022-10-19T08:08:48.884Z,13.10
2022-10-19T08:09:54.313Z,12.89
2022-10-19T08:10:59.123Z,12.93
2022-10-19T08:12:03.500Z,12.81
2022-10-19T08:13:07.860Z,12.91
2022-10-19T08:14:12.257Z,12.91
2022-10-19T08:15:16.665Z,12.91
2022-10-19T08:16:28.694Z,12.87
2022-10-19T08:17:33.189Z,12.99
2022-10-19T08:18:36.166Z,13.04
2022-10-19T08:19:43.511Z,12.90
2022-10-19T08:20:48.122Z,12.98
2022-10-19T08:21:52.694Z,12.95
2022-10-19T08:22:59.027Z,12.99
2022-10-19T08:24:03.642Z,12.95
2022-10-19T08:25:08.821Z,12.96
2022-10-19T08:26:10.583Z,12.93
2022-10-19T08:27:14.938Z,12.95
2022-10-19T08:28:16.758Z,13.07
2022-10-19T08:29:21.981Z,13.13
2022-10-19T08:30:23.735Z,13.37
2022-10-19T08:31:28.165Z,13.41
2022-10-19T08:32:32.840Z,13.46
2022-10-19T08:33:37.467Z,13.52
2022-10-19T08:34:41.995Z,13.38
2022-10-19T08:35:43.750Z,13.29
2022-10-19T08:36:48.409Z,13.39
2022-10-19T08:37:53.364Z,13.29
2022-10-19T08:38:58.090Z,13.28
2022-10-19T08:39:59.927Z,13.40
2022-10-19T08:41:14.471Z,13.37
2022-10-19T08:42:31.893Z,13.47
2022-10-19T08:43:34.992Z,13.59
2022-10-19T08:44:58.473Z,13.57
2022-10-19T08:46:08.910Z,13.68
2022-10-19T08:47:18.656Z,13.69
2022-10-19T08:48:33.602Z,13.70
2022-10-19T08:49:38.180Z,13.85
2022-10-19T08:50:43.715Z,13.86
2022-10-19T08:51:48.054Z,13.82
2022-10-19T08:52:55.226Z,13.82
2022-10-19T08:54:00.487Z,13.82
2022-10-19T08:55:15.124Z,13.81
2022-10-19T08:56:45.879Z,13.75
2022-10-19T08:58:08.198Z,13.76
2022-10-19T08:59:17.315Z,13.79
2022-10-19T09:00:43.438Z,13.80
2022-10-19T09:01:52.504Z,13.82
2022-10-19T09:02:56.878Z,13.84
2022-10-19T09:04:13.308Z,13.71
2022-10-19T09:05:23.604Z,13.62
2022-10-19T09:06:32.373Z,13.63
2022-10-19T09:07:36.975Z,13.63
2022-10-19T09:08:41.475Z,13.52
2022-10-19T09:09:48.025Z,13.46
2022-10-19T09:10:51.067Z,13.45
2022-10-19T09:11:55.961Z,13.46
2022-10-19T09:13:01.526Z,13.50
2022-10-19T09:14:08.346Z,13.58
2022-10-19T09:15:13.871Z,13.66
2022-10-19T09:16:19.181Z,13.82
2022-10-19T09:17:21.026Z,13.85
2022-10-19T09:18:28.438Z,13.91
2022-10-19T09:19:32.216Z,13.79
2022-10-19T09:20:38.218Z,13.83
2022-10-19T09:21:47.261Z,13.79
2022-10-19T09:23:06.694Z,13.65
2022-10-19T09:24:30.409Z,13.55
2022-10-19T09:25:34.796Z,13.44
2022-10-19T09:26:40.018Z,13.23
2022-10-19T09:27:41.880Z,13.11
2022-10-19T09:28:48.589Z,12.92
2022-10-19T09:29:54.303Z,12.83
2022-10-19T09:30:56.094Z,12.60
2022-10-19T09:32:01.519Z,12.42
2022-10-19T09:33:03.437Z,12.47
2022-10-19T09:34:13.960Z,12.34
2022-10-19T09:35:23.466Z,12.47
2022-10-19T09:36:33.251Z,12.56
2022-10-19T09:37:53.206Z,12.77
2022-10-19T09:38:57.545Z,12.91
2022-10-19T09:40:02.007Z,13.08
2022-10-19T09:41:17.462Z,13.25
2022-10-19T09:42:30.299Z,13.37
2022-10-19T09:43:32.118Z,13.49
2022-10-19T09:44:36.595Z,13.59
2022-10-19T09:45:43.417Z,13.83
2022-10-19T09:46:52.106Z,13.97
2022-10-19T09:48:02.206Z,14.05
2022-10-19T09:49:11.363Z,14.13
2022-10-19T09:50:17.669Z,14.21
2022-10-19T09:51:22.477Z,14.27
2022-10-19T09:52:32.547Z,14.14
2022-10-19T09:53:37.273Z,14.06
2022-10-19T09:54:39.067Z,14.05
2022-10-19T09:55:46.589Z,13.82
2022-10-19T09:56:52.763Z,13.53
2022-10-19T09:58:06.238Z,13.34
2022-10-19T09:59:11.677Z,13.08
2022-10-19T10:00:23.340Z,12.64
2022-10-19T10:01:41.601Z,12.44
2022-10-19T10:02:49.054Z,12.18
2022-10-19T10:03:55.877Z,11.82
2022-10-19T10:05:03.849Z,11.64
2022-10-19T10:06:12.477Z,11.49
2022-10-19T10:07:15.555Z,11.21
2022-10-19T10:08:21.245Z,11.16
2022-10-19T10:09:24.017Z,11.16
2022-10-19T10:10:32.540Z,11.19
2022-10-19T10:11:38.115Z,11.09
2022-10-19T10:12:40.118Z,11.06
2022-10-19T10:13:45.771Z,11.08
2022-10-19T10:14:50.319Z,11.09
2022-10-19T10:15:58.433Z,11.04
2022-10-19T10:17:05.854Z,11.01
2022-10-19T10:18:12.343Z,11.02
2022-10-19T10:19:16.985Z,11.05
2022-10-19T10:20:21.687Z,11.13
2022-10-19T10:21:32.215Z,11.23
2022-10-19T10:22:35.883Z,11.29
2022-10-19T10:23:40.523Z,11.30
2022-10-19T10:24:42.909Z,11.29
2022-10-19T10:25:47.300Z,11.29
2022-10-19T10:26:53.692Z,11.22
2022-10-19T10:27:59.651Z,11.27
2022-10-19T10:29:04.017Z,11.28
2022-10-19T10:30:09.959Z,11.29
2022-10-19T10:31:14.298Z,11.28
2022-10-19T10:32:16.862Z,11.28
2022-10-19T10:33:40.735Z,11.31
2022-10-19T10:35:06.535Z,11.34
2022-10-19T10:36:11.220Z,11.40
2022-10-19T10:37:16.689Z,11.36
2022-10-19T10:38:21.355Z,11.36
2022-10-19T10:39:24.830Z,11.37
2022-10-19T10:40:31.152Z,11.36
2022-10-19T10:41:41.837Z,11.36
2022-10-19T10:42:44.370Z,11.31
2022-10-19T10:45:20.697Z,11.29
2022-10-19T10:46:23.207Z,11.31
2022-10-19T10:47:27.605Z,11.37
2022-10-19T10:48:33.610Z,11.43
2022-10-19T10:49:36.331Z,11.50
2022-10-19T10:50:40.775Z,11.64
2022-10-19T10:51:50.717Z,11.74
2022-10-19T10:52:56.888Z,11.86
2022-10-19T10:54:20.152Z,11.96
2022-10-19T10:55:21.891Z,12.06
2022-10-19T10:56:26.229Z,12.12
2022-10-19T10:57:33.379Z,12.18
2022-10-19T10:58:37.858Z,12.26
2022-10-19T11:00:03.762Z,12.33
2022-10-19T11:01:07.674Z,12.38
2022-10-19T11:03:51.182Z,12.45
2022-10-19T11:04:57.370Z,12.45
2022-10-19T11:05:59.765Z,12.44
2022-10-19T11:07:04.942Z,12.39
2022-10-19T11:08:15.114Z,12.37
2022-10-19T11:09:39.001Z,12.34
2022-10-19T11:10:44.377Z,12.30
2022-10-19T11:11:48.930Z,12.29
2022-10-19T11:13:01.895Z,12.25
2022-10-19T11:14:24.873Z,12.24
2022-10-19T11:15:31.070Z,12.27
2022-10-19T11:16:34.179Z,12.31
2022-10-19T11:17:39.584Z,12.31
2022-10-19T11:18:47.479Z,12.36
2022-10-19T11:19:53.730Z,12.32
2022-10-19T11:21:00.362Z,12.42
2022-10-19T11:22:25.036Z,12.46
2022-10-19T11:23:43.474Z,12.53
2022-10-19T11:24:47.920Z,12.66
2022-10-19T11:25:57.188Z,12.73
2022-10-19T11:27:30.949Z,12.60
2022-10-19T11:28:35.731Z,12.73
2022-10-19T11:29:44.265Z,12.53
2022-10-19T11:30:55.883Z,12.59
2022-10-19T11:32:00.505Z,12.56
2022-10-19T11:33:11.443Z,12.64
2022-10-19T11:34:34.450Z,12.88
2022-10-19T11:35:55.555Z,12.92
2022-10-19T11:37:03.054Z,13.13
2022-10-19T11:38:20.237Z,13.21
2022-10-19T11:39:45.094Z,13.28
2022-10-19T11:42:20.063Z,13.32
2022-10-19T11:43:27.114Z,13.44
2022-10-19T11:44:43.607Z,13.58
2022-10-19T11:45:45.383Z,13.46
2022-10-19T11:47:08.620Z,13.47
2022-10-19T11:48:10.422Z,13.47
2022-10-19T11:49:17.813Z,13.47
2022-10-19T11:50:44.095Z,13.36
2022-10-19T11:51:57.464Z,13.53
2022-10-19T11:53:05.341Z,13.46
2022-10-19T11:54:15.047Z,13.56
2022-10-19T11:55:25.483Z,13.56
2022-10-19T11:56:39.156Z,13.50
2022-10-19T11:57:52.536Z,13.52
2022-10-19T11:59:09.192Z,13.48
2022-10-19T12:00:20.919Z,13.69
2022-10-19T12:01:56.502Z,13.58
2022-10-19T12:03:05.637Z,13.56
2022-10-19T12:04:22.960Z,13.36
2022-10-19T12:05:27.918Z,13.18
2022-10-19T12:06:48.391Z,13.09
2022-10-19T12:07:55.463Z,13.23
2022-10-19T12:09:06.208Z,13.11
2022-10-19T12:10:14.843Z,13.05
2022-10-19T12:11:16.935Z,12.90
2022-10-19T12:12:24.755Z,12.90
2022-10-19T12:13:31.644Z,12.93
2022-10-19T12:14:36.161Z,12.96
2022-10-19T12:15:45.414Z,12.91
2022-10-19T12:16:57.624Z,12.87
2022-10-19T12:18:03.885Z,13.06
2022-10-19T12:19:06.069Z,13.11
2022-10-19T12:20:22.057Z,13.16
2022-10-19T12:21:44.940Z,13.20
2022-10-19T12:22:46.803Z,13.07
2022-10-19T12:23:51.166Z,13.16
2022-10-19T12:24:55.440Z,13.18
2022-10-19T12:26:00.301Z,13.15
2022-10-19T12:27:02.245Z,13.29
2022-10-19T12:28:06.662Z,13.39
2022-10-19T12:29:30.566Z,13.38
2022-10-19T12:30:34.883Z,13.22
2022-10-19T12:31:36.741Z,13.28
2022-10-19T12:32:43.343Z,13.28
2022-10-19T12:34:06.549Z,13.17
2022-10-19T12:36:58.382Z,12.94
2022-10-19T12:38:04.287Z,12.69
2022-10-19T12:39:15.066Z,12.63
2022-10-19T12:40:24.698Z,12.55
2022-10-19T12:41:52.280Z,12.41
2022-10-19T12:42:54.450Z,12.31
2022-10-19T12:44:01.621Z,12.30
2022-10-19T12:45:03.391Z,12.35
2022-10-19T12:46:17.070Z,12.39
2022-10-19T12:47:22.490Z,12.41
2022-10-19T12:48:27.385Z,12.42
2022-10-19T12:49:29.190Z,12.42
2022-10-19T12:50:53.866Z,12.44
2022-10-19T12:51:56.055Z,12.38
2022-10-19T12:53:00.389Z,12.43
2022-10-19T12:54:11.458Z,12.38
2022-10-19T12:55:18.497Z,12.32
2022-10-19T12:56:22.850Z,12.27
2022-10-19T12:57:28.403Z,12.33
2022-10-19T12:58:35.302Z,12.34
2022-10-19T12:59:37.120Z,12.36
2022-10-19T13:00:41.733Z,12.42
2022-10-19T13:01:44.428Z,12.36
2022-10-19T13:02:48.863Z,12.39
2022-10-19T13:03:54.433Z,12.47
2022-10-19T13:04:56.167Z,12.61
2022-10-19T13:06:01.021Z,12.62
2022-10-19T13:07:08.126Z,12.65
2022-10-19T13:08:14.559Z,12.68
2022-10-19T13:09:24.764Z,12.83
2022-10-19T13:10:26.933Z,12.70
2022-10-19T13:11:31.506Z,12.79
2022-10-19T13:12:46.465Z,12.80
2022-10-19T13:13:51.598Z,12.83
2022-10-19T13:14:58.809Z,12.92
2022-10-19T13:16:00.669Z,12.94
2022-10-19T13:17:05.447Z,12.99
2022-10-19T13:18:13.805Z,12.93
2022-10-19T13:19:18.374Z,13.05
2022-10-19T13:20:24.973Z,13.15
2022-10-19T13:21:44.824Z,13.26
2022-10-19T13:22:55.320Z,13.39
2022-10-19T13:23:57.124Z,13.63
2022-10-19T13:25:17.540Z,13.79
2022-10-19T13:26:33.127Z,13.81
2022-10-19T13:27:41.378Z,13.96
2022-10-19T13:28:55.009Z,14.00
2022-10-19T13:29:56.850Z,13.99
2022-10-19T13:31:07.122Z,13.96
2022-10-19T13:32:33.576Z,14.10
2022-10-19T13:33:43.577Z,14.26
2022-10-19T13:34:45.885Z,14.15
2022-10-19T13:35:50.254Z,14.15
2022-10-19T13:37:03.868Z,14.07
2022-10-19T13:38:17.954Z,13.99
2022-10-19T13:39:22.316Z,13.90
2022-10-19T13:40:24.899Z,13.77
2022-10-19T13:41:30.069Z,13.76
2022-10-19T13:42:31.984Z,13.91
2022-10-19T13:43:37.610Z,13.93
2022-10-19T13:44:42.267Z,13.93
2022-10-19T13:45:44.814Z,14.05
2022-10-19T13:47:01.200Z,14.15
2022-10-19T13:48:08.678Z,13.96
2022-10-19T13:49:32.488Z,13.83
2022-10-19T13:50:43.242Z,13.92
2022-10-19T13:51:49.575Z,13.76
2022-10-19T13:53:00.353Z,13.64
2022-10-19T13:54:23.386Z,13.47
2022-10-19T13:55:25.183Z,13.38
2022-10-19T13:56:32.724Z,13.17
2022-10-19T13:57:57.029Z,12.90
2022-10-19T13:59:19.349Z,12.70
2022-10-19T14:00:27.164Z,12.57
2022-10-19T14:01:32.058Z,12.47
2022-10-19T14:02:42.685Z,12.32
2022-10-19T14:04:05.886Z,12.42
2022-10-19T14:05:07.640Z,12.33
2022-10-19T14:06:15.319Z,12.16
2022-10-19T14:07:20.871Z,12.20
2022-10-19T14:08:41.519Z,12.13
2022-10-19T14:09:55.148Z,11.97
2022-10-19T14:11:04.337Z,11.84
2022-10-19T14:12:11.499Z,11.74
2022-10-19T14:13:16.894Z,11.76
2022-10-19T14:14:20.083Z,11.89
2022-10-19T14:15:28.676Z,11.83
2022-10-19T14:16:30.415Z,11.86
2022-10-19T14:17:35.462Z,11.87
2022-10-19T14:18:37.764Z,11.85
2022-10-19T14:20:00.911Z,11.78
2022-10-19T14:21:06.768Z,11.68
2022-10-19T14:22:23.278Z,11.57
2022-10-19T14:23:25.987Z,11.63
2022-10-19T14:24:30.389Z,11.66